sensor_id;sensor_type;location;lat;lon;timestamp;P1;durP1;ratioP1;P2;durP2;ratioP2
9860;SDS011;4969;52.304;4.968;2023-04-15T00:02:20;48.58;;;38.55;;
9860;SDS011;4969;52.304;4.968;2023-04-15T00:04:46;46.90;;;36.75;;
9860;SDS011;4969;52.304;4.968;2023-04-15T00:07:13;50.20;;;39.13;;
9860;SDS011;4969;52.304;4.968;2023-04-15T00:09:41;30.65;;;23.90;;
9860;SDS011;4969;52.304;4.968;2023-04-15T00:12:10;43.20;;;34.95;;
9860;SDS011;4969;52.304;4.968;2023-04-15T00:14:37;48.30;;;36.80;;
9860;SDS011;4969;52.304;4.968;2023-04-15T00:17:04;40.13;;;31.98;;
9860;SDS011;4969;52.304;4.968;2023-04-15T00:19:31;24.05;;;18.20;;
9860;SDS011;4969;52.304;4.968;2023-04-15T00:21:58;45.63;;;36.60;;
9860;SDS011;4969;52.304;4.968;2023-04-15T00:24:25;36.80;;;29.92;;
9860;SDS011;4969;52.304;4.968;2023-04-15T00:26:53;47.72;;;38.88;;
9860;SDS011;4969;52.304;4.968;2023-04-15T00:29:19;26.33;;;20.55;;
9860;SDS011;4969;52.304;4.968;2023-04-15T00:31:46;43.88;;;35.08;;
9860;SDS011;4969;52.304;4.968;2023-04-15T00:34:13;18.52;;;14.48;;
9860;SDS011;4969;52.304;4.968;2023-04-15T00:36:39;33.97;;;25.27;;
9860;SDS011;4969;52.304;4.968;2023-04-15T00:39:06;42.83;;;32.38;;
9860;SDS011;4969;52.304;4.968;2023-04-15T00:41:32;38.75;;;31.88;;
9860;SDS011;4969;52.304;4.968;2023-04-15T00:44:00;36.17;;;27.00;;
9860;SDS011;4969;52.304;4.968;2023-04-15T00:46:28;38.83;;;30.23;;
9860;SDS011;4969;52.304;4.968;2023-04-15T00:48:56;21.02;;;16.63;;
9860;SDS011;4969;52.304;4.968;2023-04-15T00:51:23;47.15;;;38.47;;
9860;SDS011;4969;52.304;4.968;2023-04-15T00:53:49;33.47;;;26.60;;
9860;SDS011;4969;52.304;4.968;2023-04-15T00:56:16;41.05;;;32.30;;
9860;SDS011;4969;52.304;4.968;2023-04-15T00:58:45;26.98;;;22.42;;
9860;SDS011;4969;52.304;4.968;2023-04-15T01:01:14;21.17;;;16.25;;
9860;SDS011;4969;52.304;4.968;2023-04-15T01:03:40;28.25;;;23.75;;
9860;SDS011;4969;52.304;4.968;2023-04-15T01:06:07;33.40;;;25.73;;
9860;SDS011;4969;52.304;4.968;2023-04-15T01:08:34;39.35;;;30.45;;
9860;SDS011;4969;52.304;4.968;2023-04-15T01:11:00;30.88;;;24.88;;
9860;SDS011;4969;52.304;4.968;2023-04-15T01:13:28;39.80;;;31.60;;
9860;SDS011;4969;52.304;4.968;2023-04-15T01:15:55;37.45;;;29.88;;
9860;SDS011;4969;52.304;4.968;2023-04-15T01:18:23;6.55;;;4.53;;
9860;SDS011;4969;52.304;4.968;2023-04-15T01:20:51;22.90;;;18.02;;
9860;SDS011;4969;52.304;4.968;2023-04-15T01:23:18;5.13;;;3.97;;
9860;SDS011;4969;52.304;4.968;2023-04-15T01:25:47;33.47;;;27.60;;
9860;SDS011;4969;52.304;4.968;2023-04-15T01:28:14;7.75;;;6.38;;
9860;SDS011;4969;52.304;4.968;2023-04-15T01:30:41;20.25;;;16.95;;
9860;SDS011;4969;52.304;4.968;2023-04-15T01:33:08;30.17;;;23.75;;
9860;SDS011;4969;52.304;4.968;2023-04-15T01:35:35;12.47;;;9.13;;
9860;SDS011;4969;52.304;4.968;2023-04-15T01:38:03;27.27;;;21.63;;
9860;SDS011;4969;52.304;4.968;2023-04-15T01:40:31;12.97;;;10.07;;
9860;SDS011;4969;52.304;4.968;2023-04-15T01:42:59;6.27;;;4.67;;
9860;SDS011;4969;52.304;4.968;2023-04-15T01:45:26;31.03;;;24.00;;
9860;SDS011;4969;52.304;4.968;2023-04-15T01:47:53;6.93;;;5.47;;
9860;SDS011;4969;52.304;4.968;2023-04-15T01:50:19;11.27;;;9.00;;
9860;SDS011;4969;52.304;4.968;2023-04-15T01:52:46;5.17;;;4.67;;
9860;SDS011;4969;52.304;4.968;2023-04-15T01:55:12;4.77;;;4.07;;
9860;SDS011;4969;52.304;4.968;2023-04-15T01:57:39;16.80;;;12.83;;
9860;SDS011;4969;52.304;4.968;2023-04-15T02:00:08;7.90;;;6.80;;
9860;SDS011;4969;52.304;4.968;2023-04-15T02:02:35;17.40;;;14.67;;
9860;SDS011;4969;52.304;4.968;2023-04-15T02:05:02;6.80;;;5.07;;
9860;SDS011;4969;52.304;4.968;2023-04-15T02:07:29;5.03;;;4.10;;
9860;SDS011;4969;52.304;4.968;2023-04-15T02:09:56;12.10;;;9.43;;
9860;SDS011;4969;52.304;4.968;2023-04-15T02:12:23;8.07;;;5.07;;
9860;SDS011;4969;52.304;4.968;2023-04-15T02:14:50;4.80;;;4.40;;
9860;SDS011;4969;52.304;4.968;2023-04-15T02:17:17;6.77;;;4.83;;
9860;SDS011;4969;52.304;4.968;2023-04-15T02:19:44;8.00;;;4.90;;
9860;SDS011;4969;52.304;4.968;2023-04-15T02:22:10;25.53;;;20.00;;
9860;SDS011;4969;52.304;4.968;2023-04-15T02:24:42;7.90;;;5.70;;
9860;SDS011;4969;52.304;4.968;2023-04-15T02:27:09;12.90;;;8.77;;
9860;SDS011;4969;52.304;4.968;2023-04-15T02:29:36;8.17;;;6.60;;
9860;SDS011;4969;52.304;4.968;2023-04-15T02:32:03;15.17;;;12.37;;
9860;SDS011;4969;52.304;4.968;2023-04-15T02:34:31;6.53;;;4.83;;
9860;SDS011;4969;52.304;4.968;2023-04-15T02:36:58;7.40;;;5.97;;
9860;SDS011;4969;52.304;4.968;2023-04-15T02:39:25;13.57;;;11.87;;
9860;SDS011;4969;52.304;4.968;2023-04-15T02:41:51;17.90;;;15.00;;
9860;SDS011;4969;52.304;4.968;2023-04-15T02:44:19;25.37;;;20.10;;
9860;SDS011;4969;52.304;4.968;2023-04-15T02:46:47;9.57;;;7.97;;
9860;SDS011;4969;52.304;4.968;2023-04-15T02:49:16;13.60;;;11.80;;
9860;SDS011;4969;52.304;4.968;2023-04-15T02:51:44;8.53;;;6.43;;
9860;SDS011;4969;52.304;4.968;2023-04-15T02:54:13;11.60;;;9.20;;
9860;SDS011;4969;52.304;4.968;2023-04-15T02:56:40;9.20;;;8.23;;
9860;SDS011;4969;52.304;4.968;2023-04-15T02:59:06;8.73;;;7.40;;
9860;SDS011;4969;52.304;4.968;2023-04-15T03:01:33;6.50;;;4.77;;
9860;SDS011;4969;52.304;4.968;2023-04-15T03:03:59;20.47;;;15.53;;
9860;SDS011;4969;52.304;4.968;2023-04-15T03:06:26;6.63;;;5.33;;
9860;SDS011;4969;52.304;4.968;2023-04-15T03:08:54;20.63;;;16.73;;
9860;SDS011;4969;52.304;4.968;2023-04-15T03:11:20;7.10;;;6.07;;
9860;SDS011;4969;52.304;4.968;2023-04-15T03:13:47;8.80;;;7.33;;
9860;SDS011;4969;52.304;4.968;2023-04-15T03:16:14;13.50;;;11.50;;
9860;SDS011;4969;52.304;4.968;2023-04-15T03:18:41;8.70;;;5.30;;
9860;SDS011;4969;52.304;4.968;2023-04-15T03:21:07;6.23;;;5.63;;
9860;SDS011;4969;52.304;4.968;2023-04-15T03:23:34;12.93;;;8.70;;
9860;SDS011;4969;52.304;4.968;2023-04-15T03:26:02;7.60;;;6.77;;
9860;SDS011;4969;52.304;4.968;2023-04-15T03:28:29;13.93;;;11.93;;
9860;SDS011;4969;52.304;4.968;2023-04-15T03:30:56;5.93;;;5.23;;
9860;SDS011;4969;52.304;4.968;2023-04-15T03:33:23;9.00;;;6.77;;
9860;SDS011;4969;52.304;4.968;2023-04-15T03:35:49;19.33;;;15.63;;
9860;SDS011;4969;52.304;4.968;2023-04-15T03:38:16;6.23;;;5.50;;
9860;SDS011;4969;52.304;4.968;2023-04-15T03:40:44;9.03;;;8.10;;
9860;SDS011;4969;52.304;4.968;2023-04-15T03:43:13;17.37;;;14.17;;
9860;SDS011;4969;52.304;4.968;2023-04-15T03:45:39;15.60;;;12.90;;
9860;SDS011;4969;52.304;4.968;2023-04-15T03:48:06;7.67;;;6.33;;
9860;SDS011;4969;52.304;4.968;2023-04-15T03:50:33;11.03;;;9.43;;
9860;SDS011;4969;52.304;4.968;2023-04-15T03:52:59;8.77;;;7.37;;
9860;SDS011;4969;52.304;4.968;2023-04-15T03:55:26;13.70;;;12.23;;
9860;SDS011;4969;52.304;4.968;2023-04-15T03:57:52;14.67;;;12.47;;
9860;SDS011;4969;52.304;4.968;2023-04-15T04:00:20;9.23;;;6.50;;
9860;SDS011;4969;52.304;4.968;2023-04-15T04:02:47;8.43;;;6.83;;
9860;SDS011;4969;52.304;4.968;2023-04-15T04:05:13;14.47;;;12.97;;
9860;SDS011;4969;52.304;4.968;2023-04-15T04:07:40;15.60;;;13.83;;
9860;SDS011;4969;52.304;4.968;2023-04-15T04:10:07;8.03;;;7.20;;
9860;SDS011;4969;52.304;4.968;2023-04-15T04:12:34;6.93;;;6.33;;
9860;SDS011;4969;52.304;4.968;2023-04-15T04:15:01;6.77;;;6.10;;
9860;SDS011;4969;52.304;4.968;2023-04-15T04:17:28;7.03;;;6.33;;
9860;SDS011;4969;52.304;4.968;2023-04-15T04:19:55;6.80;;;5.80;;
9860;SDS011;4969;52.304;4.968;2023-04-15T04:22:21;7.37;;;6.67;;
9860;SDS011;4969;52.304;4.968;2023-04-15T04:24:48;7.57;;;6.60;;
9860;SDS011;4969;52.304;4.968;2023-04-15T04:27:15;7.43;;;6.57;;
9860;SDS011;4969;52.304;4.968;2023-04-15T04:29:42;7.63;;;6.63;;
9860;SDS011;4969;52.304;4.968;2023-04-15T04:32:08;7.40;;;6.70;;
9860;SDS011;4969;52.304;4.968;2023-04-15T04:34:37;8.20;;;6.77;;
9860;SDS011;4969;52.304;4.968;2023-04-15T04:37:03;6.87;;;6.27;;
9860;SDS011;4969;52.304;4.968;2023-04-15T04:39:30;7.70;;;6.90;;
9860;SDS011;4969;52.304;4.968;2023-04-15T04:41:57;9.07;;;7.03;;
9860;SDS011;4969;52.304;4.968;2023-04-15T04:44:24;9.63;;;7.10;;
9860;SDS011;4969;52.304;4.968;2023-04-15T04:46:51;7.97;;;7.17;;
9860;SDS011;4969;52.304;4.968;2023-04-15T04:49:17;9.10;;;6.87;;
9860;SDS011;4969;52.304;4.968;2023-04-15T04:51:45;8.10;;;7.30;;
9860;SDS011;4969;52.304;4.968;2023-04-15T04:54:12;7.50;;;6.73;;
9860;SDS011;4969;52.304;4.968;2023-04-15T04:56:40;7.60;;;6.60;;
9860;SDS011;4969;52.304;4.968;2023-04-15T04:59:06;7.93;;;7.23;;
9860;SDS011;4969;52.304;4.968;2023-04-15T05:01:33;7.47;;;6.67;;
9860;SDS011;4969;52.304;4.968;2023-04-15T05:04:00;9.00;;;6.97;;
9860;SDS011;4969;52.304;4.968;2023-04-15T05:06:27;7.80;;;7.00;;
9860;SDS011;4969;52.304;4.968;2023-04-15T05:08:55;6.87;;;6.23;;
9860;SDS011;4969;52.304;4.968;2023-04-15T05:11:22;7.87;;;7.07;;
9860;SDS011;4969;52.304;4.968;2023-04-15T05:13:49;7.63;;;6.93;;
9860;SDS011;4969;52.304;4.968;2023-04-15T05:16:15;7.17;;;6.27;;
9860;SDS011;4969;52.304;4.968;2023-04-15T05:18:42;7.83;;;7.13;;
9860;SDS011;4969;52.304;4.968;2023-04-15T05:21:09;7.87;;;7.10;;
9860;SDS011;4969;52.304;4.968;2023-04-15T05:23:35;8.80;;;6.70;;
9860;SDS011;4969;52.304;4.968;2023-04-15T05:26:04;9.00;;;6.63;;
9860;SDS011;4969;52.304;4.968;2023-04-15T05:28:30;7.90;;;6.60;;
9860;SDS011;4969;52.304;4.968;2023-04-15T05:30:57;7.53;;;6.83;;
9860;SDS011;4969;52.304;4.968;2023-04-15T05:33:23;7.93;;;7.00;;
9860;SDS011;4969;52.304;4.968;2023-04-15T05:35:50;7.53;;;6.83;;
9860;SDS011;4969;52.304;4.968;2023-04-15T05:38:17;7.30;;;6.60;;
9860;SDS011;4969;52.304;4.968;2023-04-15T05:40:43;7.67;;;6.33;;
9860;SDS011;4969;52.304;4.968;2023-04-15T05:43:11;8.37;;;7.53;;
9860;SDS011;4969;52.304;4.968;2023-04-15T05:45:38;8.37;;;7.60;;
9860;SDS011;4969;52.304;4.968;2023-04-15T05:48:04;8.40;;;7.60;;
9860;SDS011;4969;52.304;4.968;2023-04-15T05:50:31;9.07;;;8.17;;
9860;SDS011;4969;52.304;4.968;2023-04-15T05:52:57;8.47;;;7.57;;
9860;SDS011;4969;52.304;4.968;2023-04-15T05:55:24;8.77;;;7.87;;
9860;SDS011;4969;52.304;4.968;2023-04-15T05:57:51;9.40;;;8.17;;
9860;SDS011;4969;52.304;4.968;2023-04-15T06:00:19;10.40;;;8.60;;
9860;SDS011;4969;52.304;4.968;2023-04-15T06:02:46;9.23;;;8.10;;
9860;SDS011;4969;52.304;4.968;2023-04-15T06:05:12;8.07;;;7.27;;
9860;SDS011;4969;52.304;4.968;2023-04-15T06:07:39;9.27;;;8.47;;
9860;SDS011;4969;52.304;4.968;2023-04-15T06:10:08;7.87;;;7.17;;
9860;SDS011;4969;52.304;4.968;2023-04-15T06:12:35;8.37;;;7.57;;
9860;SDS011;4969;52.304;4.968;2023-04-15T06:15:01;10.03;;;9.13;;
9860;SDS011;4969;52.304;4.968;2023-04-15T06:17:29;8.47;;;7.77;;
9860;SDS011;4969;52.304;4.968;2023-04-15T06:19:56;9.53;;;8.63;;
9860;SDS011;4969;52.304;4.968;2023-04-15T06:22:23;9.07;;;8.37;;
9860;SDS011;4969;52.304;4.968;2023-04-15T06:24:49;8.67;;;7.97;;
9860;SDS011;4969;52.304;4.968;2023-04-15T06:27:17;10.00;;;9.03;;
9860;SDS011;4969;52.304;4.968;2023-04-15T06:29:43;7.37;;;6.67;;
9860;SDS011;4969;52.304;4.968;2023-04-15T06:32:10;9.20;;;8.30;;
9860;SDS011;4969;52.304;4.968;2023-04-15T06:34:38;9.80;;;9.00;;
9860;SDS011;4969;52.304;4.968;2023-04-15T06:37:05;10.10;;;8.93;;
9860;SDS011;4969;52.304;4.968;2023-04-15T06:39:33;9.90;;;9.00;;
9860;SDS011;4969;52.304;4.968;2023-04-15T06:41:59;9.43;;;8.63;;
9860;SDS011;4969;52.304;4.968;2023-04-15T06:44:27;9.80;;;8.97;;
9860;SDS011;4969;52.304;4.968;2023-04-15T06:46:54;9.77;;;8.70;;
9860;SDS011;4969;52.304;4.968;2023-04-15T06:49:21;9.13;;;8.33;;
9860;SDS011;4969;52.304;4.968;2023-04-15T06:51:49;9.83;;;9.03;;
9860;SDS011;4969;52.304;4.968;2023-04-15T06:54:16;10.20;;;9.40;;
9860;SDS011;4969;52.304;4.968;2023-04-15T06:56:43;9.93;;;9.03;;
9860;SDS011;4969;52.304;4.968;2023-04-15T06:59:09;8.97;;;8.27;;
9860;SDS011;4969;52.304;4.968;2023-04-15T07:01:36;9.70;;;8.87;;
9860;SDS011;4969;52.304;4.968;2023-04-15T07:04:03;9.30;;;8.50;;
9860;SDS011;4969;52.304;4.968;2023-04-15T07:06:30;8.57;;;7.77;;
9860;SDS011;4969;52.304;4.968;2023-04-15T07:08:59;8.73;;;7.97;;
9860;SDS011;4969;52.304;4.968;2023-04-15T07:11:25;8.83;;;8.03;;
9860;SDS011;4969;52.304;4.968;2023-04-15T07:13:52;8.57;;;7.77;;
9860;SDS011;4969;52.304;4.968;2023-04-15T07:16:19;8.13;;;7.53;;
9860;SDS011;4969;52.304;4.968;2023-04-15T07:18:45;7.60;;;7.00;;
9860;SDS011;4969;52.304;4.968;2023-04-15T07:21:12;8.13;;;7.43;;
9860;SDS011;4969;52.304;4.968;2023-04-15T07:23:39;7.87;;;7.17;;
9860;SDS011;4969;52.304;4.968;2023-04-15T07:26:06;7.47;;;6.77;;
9860;SDS011;4969;52.304;4.968;2023-04-15T07:28:33;7.60;;;6.90;;
9860;SDS011;4969;52.304;4.968;2023-04-15T07:31:00;8.13;;;7.43;;
9860;SDS011;4969;52.304;4.968;2023-04-15T07:33:26;7.20;;;6.60;;
9860;SDS011;4969;52.304;4.968;2023-04-15T07:35:53;6.97;;;6.47;;
9860;SDS011;4969;52.304;4.968;2023-04-15T07:38:20;6.77;;;6.13;;
9860;SDS011;4969;52.304;4.968;2023-04-15T07:40:47;6.30;;;5.80;;
9860;SDS011;4969;52.304;4.968;2023-04-15T07:43:15;6.30;;;5.80;;
9860;SDS011;4969;52.304;4.968;2023-04-15T07:45:41;6.47;;;5.70;;
9860;SDS011;4969;52.304;4.968;2023-04-15T07:48:08;6.47;;;5.87;;
9860;SDS011;4969;52.304;4.968;2023-04-15T07:50:35;6.70;;;6.10;;
9860;SDS011;4969;52.304;4.968;2023-04-15T07:53:02;6.40;;;5.90;;
9860;SDS011;4969;52.304;4.968;2023-04-15T07:55:29;5.87;;;5.47;;
9860;SDS011;4969;52.304;4.968;2023-04-15T07:57:56;6.57;;;6.07;;
9860;SDS011;4969;52.304;4.968;2023-04-15T08:00:24;6.63;;;6.23;;
9860;SDS011;4969;52.304;4.968;2023-04-15T08:02:50;6.43;;;5.93;;
9860;SDS011;4969;52.304;4.968;2023-04-15T08:05:17;5.37;;;4.97;;
9860;SDS011;4969;52.304;4.968;2023-04-15T08:07:44;7.17;;;6.53;;
9860;SDS011;4969;52.304;4.968;2023-04-15T08:10:11;8.13;;;7.43;;
9860;SDS011;4969;52.304;4.968;2023-04-15T08:12:37;6.90;;;5.97;;
9860;SDS011;4969;52.304;4.968;2023-04-15T08:15:05;8.80;;;8.00;;
9860;SDS011;4969;52.304;4.968;2023-04-15T08:17:33;7.90;;;7.20;;
9860;SDS011;4969;52.304;4.968;2023-04-15T08:20:00;15.47;;;11.70;;
9860;SDS011;4969;52.304;4.968;2023-04-15T08:22:27;8.97;;;7.30;;
9860;SDS011;4969;52.304;4.968;2023-04-15T08:24:53;13.07;;;10.83;;
9860;SDS011;4969;52.304;4.968;2023-04-15T08:27:20;8.27;;;7.53;;
9860;SDS011;4969;52.304;4.968;2023-04-15T08:29:47;8.73;;;7.67;;
9860;SDS011;4969;52.304;4.968;2023-04-15T08:32:13;8.93;;;8.13;;
9860;SDS011;4969;52.304;4.968;2023-04-15T08:34:42;10.13;;;8.60;;
9860;SDS011;4969;52.304;4.968;2023-04-15T08:37:08;6.53;;;6.00;;
9860;SDS011;4969;52.304;4.968;2023-04-15T08:39:35;12.87;;;11.10;;
9860;SDS011;4969;52.304;4.968;2023-04-15T08:42:02;6.30;;;5.70;;
9860;SDS011;4969;52.304;4.968;2023-04-15T08:44:32;6.73;;;6.23;;
9860;SDS011;4969;52.304;4.968;2023-04-15T08:47:01;13.70;;;11.73;;
9860;SDS011;4969;52.304;4.968;2023-04-15T08:49:29;9.00;;;8.23;;
9860;SDS011;4969;52.304;4.968;2023-04-15T08:51:59;9.50;;;8.33;;
9860;SDS011;4969;52.304;4.968;2023-04-15T08:54:26;6.70;;;6.20;;
9860;SDS011;4969;52.304;4.968;2023-04-15T08:56:53;5.97;;;5.57;;
9860;SDS011;4969;52.304;4.968;2023-04-15T08:59:19;9.87;;;8.90;;
9860;SDS011;4969;52.304;4.968;2023-04-15T09:01:47;8.20;;;7.40;;
9860;SDS011;4969;52.304;4.968;2023-04-15T09:04:14;8.63;;;7.90;;
9860;SDS011;4969;52.304;4.968;2023-04-15T09:06:41;11.87;;;10.60;;
9860;SDS011;4969;52.304;4.968;2023-04-15T09:09:10;6.33;;;5.83;;
9860;SDS011;4969;52.304;4.968;2023-04-15T09:11:38;6.77;;;6.03;;
9860;SDS011;4969;52.304;4.968;2023-04-15T09:14:04;6.60;;;6.10;;
9860;SDS011;4969;52.304;4.968;2023-04-15T09:16:31;6.83;;;6.23;;
9860;SDS011;4969;52.304;4.968;2023-04-15T09:19:21;6.77;;;6.17;;
9860;SDS011;4969;52.304;4.968;2023-04-15T09:21:49;6.53;;;5.93;;
9860;SDS011;4969;52.304;4.968;2023-04-15T09:24:17;8.83;;;7.47;;
9860;SDS011;4969;52.304;4.968;2023-04-15T09:26:44;7.03;;;6.43;;
9860;SDS011;4969;52.304;4.968;2023-04-15T09:29:11;13.20;;;11.80;;
9860;SDS011;4969;52.304;4.968;2023-04-15T09:31:38;6.40;;;5.90;;
9860;SDS011;4969;52.304;4.968;2023-04-15T09:34:05;7.00;;;6.20;;
9860;SDS011;4969;52.304;4.968;2023-04-15T09:39:18;6.07;;;5.57;;
9860;SDS011;4969;52.304;4.968;2023-04-15T09:41:45;8.83;;;7.97;;
9860;SDS011;4969;52.304;4.968;2023-04-15T09:44:21;9.97;;;8.77;;
9860;SDS011;4969;52.304;4.968;2023-04-15T09:46:48;6.00;;;5.40;;
9860;SDS011;4969;52.304;4.968;2023-04-15T09:49:15;6.20;;;5.70;;
9860;SDS011;4969;52.304;4.968;2023-04-15T09:51:42;8.17;;;6.53;;
9860;SDS011;4969;52.304;4.968;2023-04-15T09:54:09;5.77;;;5.37;;
9860;SDS011;4969;52.304;4.968;2023-04-15T09:56:37;5.70;;;5.30;;
9860;SDS011;4969;52.304;4.968;2023-04-15T09:59:06;6.30;;;5.80;;
9860;SDS011;4969;52.304;4.968;2023-04-15T10:01:33;6.27;;;5.73;;
9860;SDS011;4969;52.304;4.968;2023-04-15T10:04:00;6.70;;;6.10;;
9860;SDS011;4969;52.304;4.968;2023-04-15T10:06:29;5.60;;;5.03;;
9860;SDS011;4969;52.304;4.968;2023-04-15T10:08:56;5.77;;;5.27;;
9860;SDS011;4969;52.304;4.968;2023-04-15T10:11:23;5.90;;;5.33;;
9860;SDS011;4969;52.304;4.968;2023-04-15T10:13:51;6.20;;;5.60;;
9860;SDS011;4969;52.304;4.968;2023-04-15T10:16:19;4.93;;;4.47;;
9860;SDS011;4969;52.304;4.968;2023-04-15T10:18:47;5.47;;;5.07;;
9860;SDS011;4969;52.304;4.968;2023-04-15T10:21:20;6.00;;;5.40;;
9860;SDS011;4969;52.304;4.968;2023-04-15T10:23:47;4.93;;;4.50;;
9860;SDS011;4969;52.304;4.968;2023-04-15T10:26:15;7.47;;;6.73;;
9860;SDS011;4969;52.304;4.968;2023-04-15T10:28:42;4.60;;;4.20;;
9860;SDS011;4969;52.304;4.968;2023-04-15T10:31:11;5.07;;;4.67;;
9860;SDS011;4969;52.304;4.968;2023-04-15T10:33:39;5.53;;;4.60;;
9860;SDS011;4969;52.304;4.968;2023-04-15T10:36:06;5.50;;;5.00;;
9860;SDS011;4969;52.304;4.968;2023-04-15T10:38:33;7.17;;;4.90;;
9860;SDS011;4969;52.304;4.968;2023-04-15T10:41:11;5.33;;;4.83;;
9860;SDS011;4969;52.304;4.968;2023-04-15T10:43:49;5.50;;;5.10;;
9860;SDS011;4969;52.304;4.968;2023-04-15T10:46:19;5.13;;;4.73;;
9860;SDS011;4969;52.304;4.968;2023-04-15T10:48:48;6.63;;;6.03;;
9860;SDS011;4969;52.304;4.968;2023-04-15T10:51:15;5.50;;;5.00;;
9860;SDS011;4969;52.304;4.968;2023-04-15T10:53:43;8.20;;;6.67;;
9860;SDS011;4969;52.304;4.968;2023-04-15T10:56:09;5.83;;;4.90;;
9860;SDS011;4969;52.304;4.968;2023-04-15T10:58:42;5.20;;;4.80;;
9860;SDS011;4969;52.304;4.968;2023-04-15T11:01:09;4.73;;;4.33;;
9860;SDS011;4969;52.304;4.968;2023-04-15T11:03:38;7.30;;;6.60;;
9860;SDS011;4969;52.304;4.968;2023-04-15T11:06:06;5.23;;;4.40;;
9860;SDS011;4969;52.304;4.968;2023-04-15T11:08:51;4.53;;;4.13;;
9860;SDS011;4969;52.304;4.968;2023-04-15T11:11:19;5.07;;;4.23;;
9860;SDS011;4969;52.304;4.968;2023-04-15T11:13:46;4.53;;;4.23;;
9860;SDS011;4969;52.304;4.968;2023-04-15T11:16:14;4.40;;;4.10;;
9860;SDS011;4969;52.304;4.968;2023-04-15T11:18:42;4.63;;;4.23;;
9860;SDS011;4969;52.304;4.968;2023-04-15T11:21:19;7.53;;;5.50;;
9860;SDS011;4969;52.304;4.968;2023-04-15T11:23:50;4.10;;;3.80;;
9860;SDS011;4969;52.304;4.968;2023-04-15T11:26:17;4.57;;;4.10;;
9860;SDS011;4969;52.304;4.968;2023-04-15T11:28:44;4.30;;;4.00;;
9860;SDS011;4969;52.304;4.968;2023-04-15T11:31:11;5.57;;;4.40;;
9860;SDS011;4969;52.304;4.968;2023-04-15T11:33:52;4.27;;;3.87;;
9860;SDS011;4969;52.304;4.968;2023-04-15T11:36:20;4.40;;;4.00;;
9860;SDS011;4969;52.304;4.968;2023-04-15T11:38:50;5.90;;;3.80;;
9860;SDS011;4969;52.304;4.968;2023-04-15T11:41:19;4.73;;;4.10;;
9860;SDS011;4969;52.304;4.968;2023-04-15T11:43:46;3.67;;;3.37;;
9860;SDS011;4969;52.304;4.968;2023-04-15T11:46:13;4.13;;;3.70;;
9860;SDS011;4969;52.304;4.968;2023-04-15T11:48:41;4.73;;;3.70;;
9860;SDS011;4969;52.304;4.968;2023-04-15T11:51:10;3.60;;;3.30;;
9860;SDS011;4969;52.304;4.968;2023-04-15T11:53:38;3.37;;;3.07;;
9860;SDS011;4969;52.304;4.968;2023-04-15T11:56:07;3.40;;;3.20;;
9860;SDS011;4969;52.304;4.968;2023-04-15T11:58:35;3.90;;;3.50;;
9860;SDS011;4969;52.304;4.968;2023-04-15T12:01:03;4.47;;;4.07;;
9860;SDS011;4969;52.304;4.968;2023-04-15T12:03:35;4.37;;;3.83;;
9860;SDS011;4969;52.304;4.968;2023-04-15T12:06:04;3.10;;;2.90;;
9860;SDS011;4969;52.304;4.968;2023-04-15T12:11:35;3.13;;;2.77;;
9860;SDS011;4969;52.304;4.968;2023-04-15T12:14:08;4.37;;;2.97;;
9860;SDS011;4969;52.304;4.968;2023-04-15T12:16:37;4.03;;;3.63;;
9860;SDS011;4969;52.304;4.968;2023-04-15T12:19:06;2.77;;;2.57;;
9860;SDS011;4969;52.304;4.968;2023-04-15T12:21:34;2.33;;;2.03;;
9860;SDS011;4969;52.304;4.968;2023-04-15T12:24:05;2.43;;;2.00;;
9860;SDS011;4969;52.304;4.968;2023-04-15T12:26:34;2.17;;;1.97;;
9860;SDS011;4969;52.304;4.968;2023-04-15T12:29:03;1.90;;;1.80;;
9860;SDS011;4969;52.304;4.968;2023-04-15T12:31:32;1.90;;;1.60;;
9860;SDS011;4969;52.304;4.968;2023-04-15T12:33:59;2.33;;;2.00;;
9860;SDS011;4969;52.304;4.968;2023-04-15T12:36:26;2.70;;;2.00;;
9860;SDS011;4969;52.304;4.968;2023-04-15T12:38:54;2.00;;;1.90;;
9860;SDS011;4969;52.304;4.968;2023-04-15T12:41:22;2.83;;;1.70;;
9860;SDS011;4969;52.304;4.968;2023-04-15T12:43:49;2.37;;;2.17;;
9860;SDS011;4969;52.304;4.968;2023-04-15T12:46:16;2.33;;;2.13;;
9860;SDS011;4969;52.304;4.968;2023-04-15T12:48:42;3.10;;;2.60;;
9860;SDS011;4969;52.304;4.968;2023-04-15T12:51:09;5.40;;;2.50;;
9860;SDS011;4969;52.304;4.968;2023-04-15T12:53:36;3.87;;;2.43;;
9860;SDS011;4969;52.304;4.968;2023-04-15T12:56:02;3.27;;;2.97;;
9860;SDS011;4969;52.304;4.968;2023-04-15T12:58:31;2.80;;;2.50;;
9860;SDS011;4969;52.304;4.968;2023-04-15T13:00:58;3.40;;;2.60;;
9860;SDS011;4969;52.304;4.968;2023-04-15T13:03:25;4.23;;;2.53;;
9860;SDS011;4969;52.304;4.968;2023-04-15T13:05:51;2.83;;;2.40;;
9860;SDS011;4969;52.304;4.968;2023-04-15T13:08:18;2.83;;;2.20;;
9860;SDS011;4969;52.304;4.968;2023-04-15T13:10:45;3.13;;;2.10;;
9860;SDS011;4969;52.304;4.968;2023-04-15T13:13:11;2.50;;;1.83;;
9860;SDS011;4969;52.304;4.968;2023-04-15T13:15:39;3.03;;;1.90;;
9860;SDS011;4969;52.304;4.968;2023-04-15T13:18:09;4.07;;;2.13;;
9860;SDS011;4969;52.304;4.968;2023-04-15T13:20:37;2.70;;;2.00;;
9860;SDS011;4969;52.304;4.968;2023-04-15T13:23:03;3.57;;;2.13;;
9860;SDS011;4969;52.304;4.968;2023-04-15T13:25:30;3.00;;;2.30;;
9860;SDS011;4969;52.304;4.968;2023-04-15T13:27:56;3.47;;;2.30;;
9860;SDS011;4969;52.304;4.968;2023-04-15T13:30:23;4.17;;;2.20;;
9860;SDS011;4969;52.304;4.968;2023-04-15T13:32:51;2.53;;;2.00;;
9860;SDS011;4969;52.304;4.968;2023-04-15T13:35:18;2.37;;;2.13;;
9860;SDS011;4969;52.304;4.968;2023-04-15T13:37:45;3.40;;;1.97;;
9860;SDS011;4969;52.304;4.968;2023-04-15T13:40:12;2.77;;;2.10;;
9860;SDS011;4969;52.304;4.968;2023-04-15T13:42:38;3.90;;;2.10;;
9860;SDS011;4969;52.304;4.968;2023-04-15T13:45:06;2.43;;;1.67;;
9860;SDS011;4969;52.304;4.968;2023-04-15T13:47:33;2.33;;;1.87;;
9860;SDS011;4969;52.304;4.968;2023-04-15T13:50:01;4.80;;;1.77;;
9860;SDS011;4969;52.304;4.968;2023-04-15T13:52:28;2.17;;;1.80;;
9860;SDS011;4969;52.304;4.968;2023-04-15T13:54:54;2.83;;;1.70;;
9860;SDS011;4969;52.304;4.968;2023-04-15T13:57:21;3.10;;;1.83;;
9860;SDS011;4969;52.304;4.968;2023-04-15T13:59:47;2.70;;;1.70;;
9860;SDS011;4969;52.304;4.968;2023-04-15T14:02:14;2.43;;;1.50;;
9860;SDS011;4969;52.304;4.968;2023-04-15T14:04:40;4.07;;;1.70;;
9860;SDS011;4969;52.304;4.968;2023-04-15T14:07:08;2.83;;;1.60;;
9860;SDS011;4969;52.304;4.968;2023-04-15T14:09:35;1.83;;;1.30;;
9860;SDS011;4969;52.304;4.968;2023-04-15T14:12:02;2.83;;;1.13;;
9860;SDS011;4969;52.304;4.968;2023-04-15T14:14:29;3.23;;;1.87;;
9860;SDS011;4969;52.304;4.968;2023-04-15T14:16:55;2.70;;;1.47;;
9860;SDS011;4969;52.304;4.968;2023-04-15T14:19:22;4.33;;;2.00;;
9860;SDS011;4969;52.304;4.968;2023-04-15T14:21:49;3.17;;;1.73;;
9860;SDS011;4969;52.304;4.968;2023-04-15T14:24:17;4.10;;;1.73;;
9860;SDS011;4969;52.304;4.968;2023-04-15T14:26:43;4.70;;;2.00;;
9860;SDS011;4969;52.304;4.968;2023-04-15T14:29:10;3.77;;;1.77;;
9860;SDS011;4969;52.304;4.968;2023-04-15T14:31:37;4.40;;;1.90;;
9860;SDS011;4969;52.304;4.968;2023-04-15T14:34:04;3.57;;;2.07;;
9860;SDS011;4969;52.304;4.968;2023-04-15T14:36:30;5.87;;;2.10;;
9860;SDS011;4969;52.304;4.968;2023-04-15T14:38:57;5.10;;;2.13;;
9860;SDS011;4969;52.304;4.968;2023-04-15T14:41:25;4.03;;;1.90;;
9860;SDS011;4969;52.304;4.968;2023-04-15T14:43:52;6.27;;;2.47;;
9860;SDS011;4969;52.304;4.968;2023-04-15T14:46:18;4.47;;;1.67;;
9860;SDS011;4969;52.304;4.968;2023-04-15T14:48:45;4.30;;;1.80;;
9860;SDS011;4969;52.304;4.968;2023-04-15T14:51:11;2.87;;;1.80;;
9860;SDS011;4969;52.304;4.968;2023-04-15T14:53:38;4.27;;;1.87;;
9860;SDS011;4969;52.304;4.968;2023-04-15T14:56:05;4.90;;;1.80;;
9860;SDS011;4969;52.304;4.968;2023-04-15T14:58:33;2.33;;;1.90;;
9860;SDS011;4969;52.304;4.968;2023-04-15T15:01:00;3.53;;;1.90;;
9860;SDS011;4969;52.304;4.968;2023-04-15T15:03:27;2.33;;;1.57;;
9860;SDS011;4969;52.304;4.968;2023-04-15T15:05:53;4.67;;;2.10;;
9860;SDS011;4969;52.304;4.968;2023-04-15T15:08:21;8.20;;;1.97;;
9860;SDS011;4969;52.304;4.968;2023-04-15T15:10:48;5.80;;;1.57;;
9860;SDS011;4969;52.304;4.968;2023-04-15T15:13:15;4.57;;;1.80;;
9860;SDS011;4969;52.304;4.968;2023-04-15T15:15:43;5.53;;;2.03;;
9860;SDS011;4969;52.304;4.968;2023-04-15T15:18:10;4.63;;;1.87;;